createdAt,value
2023-07-12T00:00:37.004Z,61.69
2023-07-12T00:01:41.172Z,60.72
2023-07-12T00:02:43.688Z,60.87
2023-07-12T00:03:46.081Z,61.13
2023-07-12T00:04:48.257Z,60.84
2023-07-12T00:05:52.884Z,60.64
2023-07-12T00:06:56.618Z,60.46
2023-07-12T00:07:58.782Z,60.67
2023-07-12T00:09:00.952Z,60.79
2023-07-12T00:10:03.628Z,61.39
2023-07-12T00:11:05.762Z,61.08
2023-07-12T00:12:08.880Z,60.41
2023-07-12T00:13:11.781Z,60.85
2023-07-12T00:14:13.947Z,60.92
2023-07-12T00:15:25.613Z,61.42
2023-07-12T00:16:35.414Z,61.41
2023-07-12T00:17:38.052Z,61.44
2023-07-12T00:18:40.260Z,60.80
2023-07-12T00:19:42.395Z,61.21
2023-07-12T00:20:45.567Z,61.33
2023-07-12T00:21:47.788Z,62.03
2023-07-12T00:22:52.226Z,60.60
2023-07-12T00:23:55.188Z,60.73
2023-07-12T00:24:57.243Z,61.15
2023-07-12T00:25:59.423Z,61.25
2023-07-12T00:27:02.006Z,61.79
2023-07-12T00:28:06.067Z,61.20
2023-07-12T00:29:09.592Z,61.29
2023-07-12T00:30:24.591Z,60.44
2023-07-12T00:31:27.167Z,59.86
2023-07-12T00:32:29.418Z,59.33
2023-07-12T00:33:31.578Z,59.38
2023-07-12T00:34:33.710Z,58.74
2023-07-12T00:35:43.762Z,58.18
2023-07-12T00:36:46.224Z,57.96
2023-07-12T00:37:48.925Z,57.68
2023-07-12T00:38:51.557Z,57.90
2023-07-12T00:39:53.762Z,57.70
2023-07-12T00:41:02.869Z,57.34
2023-07-12T00:42:21.051Z,57.36
2023-07-12T00:43:35.000Z,57.72
2023-07-12T00:44:46.012Z,57.66
2023-07-12T00:45:51.232Z,57.83
2023-07-12T00:46:55.387Z,58.28
2023-07-12T00:47:58.232Z,58.40
2023-07-12T00:49:00.577Z,58.45
2023-07-12T00:50:02.898Z,58.81
2023-07-12T00:51:28.443Z,60.11
2023-07-12T00:52:31.289Z,58.10
2023-07-12T00:53:33.441Z,58.79
2023-07-12T00:54:48.817Z,58.97
2023-07-12T00:56:08.414Z,58.49
2023-07-12T00:57:10.612Z,58.43
2023-07-12T00:58:13.280Z,58.99
2023-07-12T00:59:21.877Z,58.45
2023-07-12T01:00:24.049Z,58.64
2023-07-12T01:01:28.413Z,59.02
2023-07-12T01:02:30.921Z,58.38
2023-07-12T01:03:36.424Z,58.86
2023-07-12T01:04:49.703Z,58.98
2023-07-12T01:05:52.529Z,57.99
2023-07-12T01:06:55.506Z,58.07
2023-07-12T01:07:57.680Z,57.97
2023-07-12T01:09:07.552Z,57.97
2023-07-12T01:10:09.986Z,58.38
2023-07-12T01:11:14.828Z,58.45
2023-07-12T01:12:16.949Z,58.65
2023-07-12T01:13:23.562Z,58.85
2023-07-12T01:14:25.830Z,59.05
2023-07-12T01:15:28.066Z,59.25
2023-07-12T01:16:31.471Z,59.06
2023-07-12T01:17:33.734Z,58.95
2023-07-12T01:18:36.066Z,58.53
2023-07-12T01:19:39.486Z,58.68
2023-07-12T01:20:42.849Z,59.22
2023-07-12T01:21:47.818Z,59.10
2023-07-12T01:22:52.886Z,59.31
2023-07-12T01:23:55.090Z,59.57
2023-07-12T01:24:57.253Z,58.78
2023-07-12T01:26:28.194Z,58.69
2023-07-12T01:27:30.408Z,58.86
2023-07-12T01:28:32.597Z,59.31
2023-07-12T01:29:34.770Z,59.42
2023-07-12T01:30:38.136Z,59.56
2023-07-12T01:31:41.152Z,59.91
2023-07-12T01:32:44.377Z,60.07
2023-07-12T01:33:46.702Z,60.39
2023-07-12T01:34:48.962Z,60.29
2023-07-12T01:35:51.114Z,60.94
2023-07-12T01:36:53.299Z,61.11
2023-07-12T01:37:55.447Z,60.43
2023-07-12T01:38:58.951Z,60.75
2023-07-12T01:40:01.112Z,60.19
2023-07-12T01:41:03.591Z,61.43
2023-07-12T01:42:06.130Z,60.95
2023-07-12T01:43:08.281Z,59.74
2023-07-12T01:44:10.452Z,59.62
2023-07-12T01:45:12.575Z,59.46
2023-07-12T01:46:15.087Z,59.81
2023-07-12T01:47:18.100Z,59.50
2023-07-12T01:48:20.244Z,59.30
2023-07-12T01:49:22.383Z,59.33
2023-07-12T01:50:24.490Z,59.42
2023-07-12T01:51:27.421Z,59.40
2023-07-12T01:52:29.587Z,59.11
2023-07-12T01:53:32.767Z,59.40
2023-07-12T01:54:34.953Z,59.63
2023-07-12T01:55:37.128Z,59.52
2023-07-12T01:56:39.236Z,59.80
2023-07-12T01:57:41.352Z,59.59
2023-07-12T01:58:43.622Z,59.76
2023-07-12T01:59:45.781Z,59.81
2023-07-12T02:00:48.741Z,60.04
2023-07-12T02:01:50.967Z,60.35
2023-07-12T02:02:53.274Z,60.41
2023-07-12T02:03:55.631Z,60.52
2023-07-12T02:04:57.854Z,60.65
2023-07-12T02:06:00.089Z,61.06
2023-07-12T02:07:04.717Z,61.03
2023-07-12T02:08:06.934Z,61.07
2023-07-12T02:09:09.154Z,61.31
2023-07-12T02:10:17.074Z,61.45
2023-07-12T02:11:19.283Z,61.47
2023-07-12T02:12:21.478Z,61.49
2023-07-12T02:13:25.111Z,61.59
2023-07-12T02:14:27.777Z,61.78
2023-07-12T02:15:30.025Z,61.75
2023-07-12T02:16:32.253Z,61.74
2023-07-12T02:17:34.546Z,61.69
2023-07-12T02:18:36.700Z,61.46
2023-07-12T02:19:38.956Z,61.31
2023-07-12T02:20:41.480Z,61.51
2023-07-12T02:21:43.657Z,61.49
2023-07-12T02:22:47.245Z,61.41
2023-07-12T02:23:49.373Z,62.11
2023-07-12T02:24:51.518Z,61.83
2023-07-12T02:25:53.679Z,62.42
2023-07-12T02:26:55.791Z,60.92
2023-07-12T02:27:58.025Z,61.12
2023-07-12T02:29:00.187Z,61.29
2023-07-12T02:30:02.313Z,61.21
2023-07-12T02:31:33.565Z,61.05
2023-07-12T02:32:35.783Z,61.12
2023-07-12T02:33:37.911Z,61.15
2023-07-12T02:34:40.040Z,61.17
2023-07-12T02:35:42.748Z,61.12
2023-07-12T02:36:44.914Z,60.80
2023-07-12T02:37:47.576Z,60.71
2023-07-12T02:38:50.040Z,60.82
2023-07-12T02:39:52.189Z,60.88
2023-07-12T02:40:54.337Z,60.84
2023-07-12T02:41:56.548Z,60.93
2023-07-12T02:42:58.892Z,61.41
2023-07-12T02:44:01.060Z,61.34
2023-07-12T02:45:03.661Z,61.19
2023-07-12T02:46:06.186Z,61.22
2023-07-12T02:47:09.384Z,61.34
2023-07-12T02:48:11.558Z,61.31
2023-07-12T02:49:14.300Z,61.28
2023-07-12T02:50:16.506Z,61.24
2023-07-12T02:51:18.651Z,61.38
2023-07-12T02:52:20.847Z,61.24
2023-07-12T02:53:23.214Z,61.37
2023-07-12T02:54:25.337Z,61.32
2023-07-12T02:55:27.491Z,61.09
2023-07-12T02:56:29.604Z,62.02
2023-07-12T02:57:31.844Z,62.61
2023-07-12T02:58:34.264Z,61.27
2023-07-12T02:59:36.505Z,61.21
2023-07-12T03:00:38.978Z,61.24
2023-07-12T03:01:42.696Z,61.39
2023-07-12T03:02:44.936Z,61.29
2023-07-12T03:03:47.191Z,61.08
2023-07-12T03:04:49.447Z,61.09
2023-07-12T03:05:51.590Z,61.53
2023-07-12T03:06:53.778Z,61.11
2023-07-12T03:07:55.915Z,60.99
2023-07-12T03:08:58.133Z,60.74
2023-07-12T03:10:00.292Z,60.88
2023-07-12T03:11:07.360Z,60.68
2023-07-12T03:12:09.976Z,61.19
2023-07-12T03:13:12.140Z,60.70
2023-07-12T03:14:18.216Z,60.30
2023-07-12T03:15:21.987Z,61.21
2023-07-12T03:16:24.358Z,61.39
2023-07-12T03:17:26.792Z,60.00
2023-07-12T03:18:29.047Z,59.94
2023-07-12T03:19:31.219Z,59.96
2023-07-12T03:20:34.522Z,60.33
2023-07-12T03:21:36.769Z,61.05
2023-07-12T03:22:38.923Z,61.33
2023-07-12T03:23:41.130Z,60.91
2023-07-12T03:24:43.282Z,59.83
2023-07-12T03:25:46.860Z,60.02
2023-07-12T03:26:48.995Z,59.77
2023-07-12T03:27:51.868Z,59.72
2023-07-12T03:28:54.050Z,59.97
2023-07-12T03:29:56.786Z,60.56
2023-07-12T03:31:04.460Z,59.81
2023-07-12T03:32:07.011Z,59.75
2023-07-12T03:33:09.241Z,58.90
2023-07-12T03:34:11.487Z,59.02
2023-07-12T03:35:13.653Z,59.21
2023-07-12T03:36:16.372Z,59.59
2023-07-12T03:37:18.568Z,59.90
2023-07-12T03:38:21.494Z,59.84
2023-07-12T03:39:23.630Z,60.12
2023-07-12T03:40:25.758Z,59.48
2023-07-12T03:41:27.928Z,59.94
2023-07-12T03:42:30.050Z,59.85
2023-07-12T03:43:32.766Z,59.83
2023-07-12T03:44:35.109Z,60.46
2023-07-12T03:45:37.254Z,60.36
2023-07-12T03:46:39.440Z,60.86
2023-07-12T03:47:41.815Z,60.41
2023-07-12T03:48:44.637Z,61.19
2023-07-12T03:49:46.854Z,59.80
2023-07-12T03:50:49.609Z,60.01
2023-07-12T03:51:51.836Z,59.83
2023-07-12T03:52:53.961Z,59.21
2023-07-12T03:53:56.102Z,59.04
2023-07-12T03:54:58.247Z,58.93
2023-07-12T03:56:04.934Z,58.80
2023-07-12T03:57:07.111Z,58.72
2023-07-12T03:58:12.344Z,58.46
2023-07-12T03:59:14.874Z,58.38
2023-07-12T04:00:17.108Z,58.58
2023-07-12T04:01:19.728Z,58.30
2023-07-12T04:02:21.967Z,58.05
2023-07-12T04:03:24.202Z,58.41
2023-07-12T04:04:26.435Z,58.05
2023-07-12T04:05:28.602Z,58.38
2023-07-12T04:06:30.785Z,58.51
2023-07-12T04:07:33.199Z,58.48
2023-07-12T04:08:35.645Z,58.33
2023-07-12T04:09:37.786Z,58.95
2023-07-12T04:10:39.935Z,58.47
2023-07-12T04:11:42.666Z,58.34
2023-07-12T04:12:44.933Z,57.54
2023-07-12T04:13:47.039Z,57.26
2023-07-12T04:14:49.768Z,57.65
2023-07-12T04:15:56.941Z,57.45
2023-07-12T04:16:59.115Z,57.27
2023-07-12T04:18:01.462Z,57.33
2023-07-12T04:19:03.692Z,57.38
2023-07-12T04:20:06.889Z,57.55
2023-07-12T04:21:09.238Z,57.84
2023-07-12T04:22:11.637Z,58.15
2023-07-12T04:23:13.867Z,57.35
2023-07-12T04:24:16.061Z,57.42
2023-07-12T04:25:19.182Z,56.72
2023-07-12T04:26:22.321Z,56.62
2023-07-12T04:27:24.547Z,56.65
2023-07-12T04:28:27.254Z,57.98
2023-07-12T04:29:29.877Z,57.89
2023-07-12T04:30:32.068Z,56.95
2023-07-12T04:31:34.337Z,56.98
2023-07-12T04:32:36.901Z,56.93
2023-07-12T04:33:39.427Z,56.88
2023-07-12T04:34:41.566Z,56.96
2023-07-12T04:35:43.808Z,57.99
2023-07-12T04:36:46.005Z,57.33
2023-07-12T04:37:49.325Z,56.75
2023-07-12T04:38:51.495Z,57.06
2023-07-12T04:39:53.921Z,57.26
2023-07-12T04:40:56.320Z,56.34
2023-07-12T04:41:58.496Z,57.26
2023-07-12T04:43:00.742Z,57.21
2023-07-12T04:44:02.951Z,57.27
2023-07-12T04:45:06.109Z,56.69
2023-07-12T04:46:08.526Z,56.75
2023-07-12T04:47:10.775Z,57.41
2023-07-12T04:48:13.051Z,57.78
2023-07-12T04:49:15.257Z,57.11
2023-07-12T04:50:17.494Z,57.63
2023-07-12T04:51:19.681Z,58.63
2023-07-12T04:52:21.963Z,56.36
2023-07-12T04:53:24.491Z,56.60
2023-07-12T04:54:26.878Z,57.19
2023-07-12T04:55:29.140Z,57.42
2023-07-12T04:56:31.310Z,57.49
2023-07-12T04:57:33.501Z,57.42
2023-07-12T04:58:35.690Z,57.71
2023-07-12T04:59:37.957Z,57.55
2023-07-12T05:00:40.848Z,59.01
2023-07-12T05:01:43.374Z,58.16
2023-07-12T05:02:45.757Z,58.86
2023-07-12T05:03:48.580Z,59.51
2023-07-12T05:04:50.778Z,59.49
2023-07-12T05:05:53.474Z,59.51
2023-07-12T05:06:55.711Z,58.98
2023-07-12T05:07:57.869Z,59.31
2023-07-12T05:09:00.061Z,58.32
2023-07-12T05:10:02.206Z,59.49
2023-07-12T05:11:04.563Z,59.76
2023-07-12T05:12:07.081Z,59.28
2023-07-12T05:13:09.264Z,59.76
2023-07-12T05:14:11.520Z,59.49
2023-07-12T05:15:14.057Z,59.12
2023-07-12T05:16:16.279Z,59.09
2023-07-12T05:17:18.500Z,59.13
2023-07-12T05:18:21.436Z,59.53
2023-07-12T05:19:23.683Z,59.29
2023-07-12T05:20:25.902Z,59.40
2023-07-12T05:21:28.255Z,59.01
2023-07-12T05:22:30.395Z,58.85
2023-07-12T05:23:32.631Z,59.60
2023-07-12T05:24:34.827Z,59.75
2023-07-12T05:25:37.021Z,60.26
2023-07-12T05:26:39.239Z,59.73
2023-07-12T05:27:41.650Z,60.24
2023-07-12T05:28:43.925Z,60.39
2023-07-12T05:29:46.127Z,60.20
2023-07-12T05:30:48.358Z,60.60
2023-07-12T05:31:50.876Z,60.21
2023-07-12T05:32:53.231Z,60.19
2023-07-12T05:33:55.434Z,59.64
2023-07-12T05:34:57.757Z,59.57
2023-07-12T05:36:02.482Z,60.17
2023-07-12T05:37:05.428Z,58.87
2023-07-12T05:38:08.473Z,58.25
2023-07-12T05:39:10.760Z,59.69
2023-07-12T05:40:14.220Z,58.55
2023-07-12T05:41:16.467Z,58.50
2023-07-12T05:42:18.904Z,57.81
2023-07-12T05:43:27.599Z,58.09
2023-07-12T05:44:31.089Z,58.56
2023-07-12T05:45:33.207Z,57.75
2023-07-12T05:46:35.610Z,56.43
2023-07-12T05:47:38.899Z,56.92
2023-07-12T05:48:41.329Z,56.29
2023-07-12T05:49:43.482Z,56.44
2023-07-12T05:50:52.026Z,55.90
2023-07-12T05:51:54.368Z,55.48
2023-07-12T05:52:56.571Z,55.39
2023-07-12T05:53:58.684Z,54.78
2023-07-12T05:55:00.860Z,54.82
2023-07-12T05:56:05.802Z,54.57
2023-07-12T05:57:08.017Z,54.93
2023-07-12T05:58:10.219Z,54.91
2023-07-12T05:59:12.444Z,54.38
2023-07-12T06:00:15.176Z,54.19
2023-07-12T06:01:18.578Z,53.61
2023-07-12T06:02:20.781Z,54.00
2023-07-12T06:03:23.202Z,53.25
2023-07-12T06:04:25.587Z,54.02
2023-07-12T06:05:27.789Z,53.17
2023-07-12T06:06:29.938Z,53.32
2023-07-12T06:07:32.451Z,53.22
2023-07-12T06:08:35.146Z,53.07
2023-07-12T06:09:37.328Z,53.30
2023-07-12T06:10:39.512Z,53.47
2023-07-12T06:11:41.763Z,53.27
2023-07-12T06:12:44.321Z,52.47
2023-07-12T06:13:46.498Z,53.59
2023-07-12T06:14:48.655Z,52.50
2023-07-12T06:15:50.970Z,52.19
2023-07-12T06:16:53.140Z,51.82
2023-07-12T06:17:55.382Z,51.96
2023-07-12T06:18:57.649Z,52.49
2023-07-12T06:20:00.040Z,52.13
2023-07-12T06:21:04.115Z,51.69
2023-07-12T06:22:06.725Z,51.52
2023-07-12T06:23:08.979Z,50.84
2023-07-12T06:24:11.152Z,50.74
2023-07-12T06:25:13.315Z,52.08
2023-07-12T06:26:15.460Z,50.90
2023-07-12T06:27:17.689Z,50.25
2023-07-12T06:28:19.955Z,50.89
2023-07-12T06:29:22.173Z,50.86
2023-07-12T06:30:24.445Z,51.15
2023-07-12T06:31:26.809Z,51.12
2023-07-12T06:32:29.079Z,50.96
2023-07-12T06:33:32.381Z,50.74
2023-07-12T06:34:34.728Z,50.68
2023-07-12T06:35:36.900Z,50.34
2023-07-12T06:36:39.135Z,49.73
2023-07-12T06:37:41.447Z,49.91
2023-07-12T06:38:45.516Z,50.27
2023-07-12T06:39:47.754Z,50.42
2023-07-12T06:40:49.974Z,50.68
2023-07-12T06:41:52.108Z,50.71
2023-07-12T06:42:54.272Z,50.24
2023-07-12T06:43:57.175Z,49.79
2023-07-12T06:44:59.618Z,49.44
2023-07-12T06:46:01.845Z,49.81
2023-07-12T06:47:04.341Z,49.99
2023-07-12T06:48:06.598Z,49.67
2023-07-12T06:49:08.786Z,49.59
2023-07-12T06:50:11.119Z,48.96
2023-07-12T06:51:13.279Z,48.66
2023-07-12T06:52:15.491Z,47.30
2023-07-12T06:53:17.691Z,47.29
2023-07-12T06:54:19.853Z,48.23
2023-07-12T06:55:22.072Z,48.55
2023-07-12T06:56:24.321Z,47.89
2023-07-12T06:57:26.483Z,48.44
2023-07-12T06:58:28.659Z,47.67
2023-07-12T06:59:31.027Z,47.75
2023-07-12T07:00:33.256Z,47.83
2023-07-12T07:01:35.473Z,47.66
2023-07-12T07:02:37.899Z,47.74
2023-07-12T07:03:40.110Z,47.53
2023-07-12T07:04:42.529Z,47.26
2023-07-12T07:05:46.362Z,46.95
2023-07-12T07:06:48.538Z,46.83
2023-07-12T07:07:50.715Z,46.88
2023-07-12T07:08:53.024Z,47.04
2023-07-12T07:09:55.618Z,47.06
2023-07-12T07:10:57.861Z,46.65
2023-07-12T07:12:00.764Z,47.31
2023-07-12T07:13:03.202Z,46.38
2023-07-12T07:14:05.495Z,45.95
2023-07-12T07:15:08.189Z,46.08
2023-07-12T07:16:11.576Z,45.23
2023-07-12T07:17:13.753Z,45.24
2023-07-12T07:18:16.369Z,45.92
2023-07-12T07:19:18.603Z,46.29
2023-07-12T07:20:20.729Z,45.78
2023-07-12T07:21:23.391Z,45.56
2023-07-12T07:22:25.543Z,45.20
2023-07-12T07:23:27.675Z,46.78
2023-07-12T07:24:29.844Z,45.20
2023-07-12T07:25:31.982Z,45.28
2023-07-12T07:26:34.149Z,45.24
2023-07-12T07:27:36.423Z,45.66
2023-07-12T07:28:39.892Z,45.15
2023-07-12T07:29:42.097Z,44.79
2023-07-12T07:30:44.293Z,45.20
2023-07-12T07:31:47.901Z,45.54
2023-07-12T07:32:51.155Z,44.24
2023-07-12T07:33:53.332Z,45.93
2023-07-12T07:34:55.976Z,44.94
2023-07-12T07:35:58.186Z,44.36
2023-07-12T07:37:00.495Z,44.54
2023-07-12T07:38:02.683Z,45.87
2023-07-12T07:39:06.138Z,46.32
2023-07-12T07:40:10.010Z,44.36
2023-07-12T07:41:16.075Z,45.29
2023-07-12T07:42:18.292Z,44.19
2023-07-12T07:43:20.454Z,43.91
2023-07-12T07:44:23.367Z,43.63
2023-07-12T07:45:26.065Z,44.28
2023-07-12T07:46:28.385Z,43.89
2023-07-12T07:47:30.617Z,44.09
2023-07-12T07:48:32.770Z,44.11
2023-07-12T07:49:34.921Z,44.78
2023-07-12T07:50:37.238Z,44.57
2023-07-12T07:51:39.382Z,44.36
2023-07-12T07:52:41.537Z,44.70
2023-07-12T07:53:44.341Z,44.31
2023-07-12T07:54:46.473Z,43.88
2023-07-12T07:55:50.697Z,42.98
2023-07-12T07:56:52.937Z,43.46
2023-07-12T07:57:55.040Z,43.64
2023-07-12T07:58:57.184Z,43.51
2023-07-12T08:00:04.984Z,43.80
2023-07-12T08:01:07.356Z,42.94
2023-07-12T08:02:11.559Z,44.93
2023-07-12T08:03:13.865Z,43.43
2023-07-12T08:04:16.253Z,43.54
2023-07-12T08:05:18.765Z,42.22
2023-07-12T08:06:20.961Z,41.92
2023-07-12T08:07:24.292Z,41.85
2023-07-12T08:08:26.444Z,40.18
2023-07-12T08:09:28.595Z,40.78
2023-07-12T08:10:31.263Z,41.97
2023-07-12T08:11:36.357Z,39.86
2023-07-12T08:12:39.046Z,41.32
2023-07-12T08:13:41.273Z,40.62
2023-07-12T08:14:44.170Z,40.18
2023-07-12T08:15:46.342Z,40.42
2023-07-12T08:16:49.832Z,39.84
2023-07-12T08:17:52.764Z,41.06
2023-07-12T08:18:55.083Z,40.39
2023-07-12T08:19:57.528Z,40.33
2023-07-12T08:20:59.763Z,40.03
2023-07-12T08:22:01.940Z,40.27
2023-07-12T08:23:04.380Z,39.90
2023-07-12T08:24:06.863Z,41.57
2023-07-12T08:25:09.969Z,42.02
2023-07-12T08:26:12.152Z,43.00
2023-07-12T08:27:17.054Z,42.36
2023-07-12T08:28:19.265Z,40.97
2023-07-12T08:29:21.412Z,40.43
2023-07-12T08:30:23.783Z,41.06
2023-07-12T08:31:26.065Z,40.99
2023-07-12T08:32:30.051Z,42.14
2023-07-12T08:33:32.239Z,42.14
2023-07-12T08:34:34.418Z,42.30
2023-07-12T08:35:47.224Z,42.28
2023-07-12T08:36:50.792Z,41.23
2023-07-12T08:37:53.178Z,41.40
2023-07-12T08:38:55.347Z,41.30
2023-07-12T08:39:57.564Z,40.35
2023-07-12T08:41:00.236Z,41.24
2023-07-12T08:42:10.309Z,41.69
2023-07-12T08:43:17.418Z,41.63
2023-07-12T08:44:20.231Z,40.43
2023-07-12T08:45:31.339Z,40.76
2023-07-12T08:46:37.750Z,41.50
2023-07-12T08:47:40.689Z,42.25
2023-07-12T08:48:43.237Z,40.91
2023-07-12T08:49:45.376Z,41.38
2023-07-12T08:50:48.912Z,42.09
2023-07-12T08:51:51.903Z,40.70
2023-07-12T08:52:54.078Z,41.77
2023-07-12T08:53:57.079Z,41.49
2023-07-12T08:55:01.788Z,40.71
2023-07-12T08:56:05.912Z,40.18
2023-07-12T08:57:22.817Z,40.50
2023-07-12T08:58:28.141Z,40.01
2023-07-12T08:59:30.665Z,40.31
2023-07-12T09:00:35.340Z,40.80
2023-07-12T09:02:00.777Z,39.64
2023-07-12T09:03:04.036Z,39.74
2023-07-12T09:04:35.479Z,39.88
2023-07-12T09:05:37.706Z,40.17
2023-07-12T09:06:39.860Z,40.42
2023-07-12T09:08:12.668Z,40.41
2023-07-12T09:09:14.834Z,40.86
2023-07-12T09:10:31.018Z,40.57
2023-07-12T09:11:33.658Z,39.25
2023-07-12T09:12:37.042Z,39.72
2023-07-12T09:13:40.961Z,39.05
2023-07-12T09:14:43.388Z,39.19
2023-07-12T09:15:53.348Z,38.87
2023-07-12T09:16:58.775Z,38.29
2023-07-12T09:18:01.208Z,38.83
2023-07-12T09:19:15.217Z,39.05
2023-07-12T09:20:29.424Z,38.88
2023-07-12T09:21:38.518Z,39.29
2023-07-12T09:22:40.675Z,40.63
2023-07-12T09:23:44.568Z,37.89
2023-07-12T09:24:53.019Z,39.03
2023-07-12T09:25:56.818Z,39.73
2023-07-12T09:27:06.951Z,39.82
2023-07-12T09:28:13.257Z,39.69
2023-07-12T09:29:20.401Z,38.89
2023-07-12T09:30:27.294Z,37.99
2023-07-12T09:31:30.941Z,37.46
2023-07-12T09:32:35.404Z,36.93
2023-07-12T09:33:37.868Z,36.69
2023-07-12T09:34:40.601Z,37.48
2023-07-12T09:35:47.923Z,36.19
2023-07-12T09:36:58.335Z,36.00
2023-07-12T09:38:03.250Z,34.79
2023-07-12T09:39:06.564Z,34.66
2023-07-12T09:40:17.030Z,34.16
2023-07-12T09:41:25.312Z,33.90
2023-07-12T09:42:29.356Z,33.31
2023-07-12T09:43:31.760Z,32.55
2023-07-12T09:44:33.962Z,32.55
2023-07-12T09:45:36.651Z,32.14
2023-07-12T09:46:43.542Z,32.28
2023-07-12T09:47:49.034Z,32.08
2023-07-12T09:48:55.143Z,31.42
2023-07-12T09:50:07.660Z,32.00
2023-07-12T09:51:24.501Z,31.24
2023-07-12T09:52:32.265Z,31.96
2023-07-12T09:53:38.803Z,31.44
2023-07-12T09:54:53.414Z,30.96
2023-07-12T09:56:12.808Z,31.45
2023-07-12T09:57:23.923Z,30.97
2023-07-12T09:58:41.256Z,31.11
2023-07-12T10:00:10.420Z,30.91
2023-07-12T10:01:41.521Z,30.78
2023-07-12T10:03:09.403Z,31.56
2023-07-12T10:04:40.909Z,30.31
2023-07-12T10:18:31.860Z,34.81
2023-07-12T10:19:37.809Z,34.30
2023-07-12T10:20:40.873Z,34.18
2023-07-12T10:21:43.192Z,33.94
2023-07-12T10:22:46.488Z,33.95
2023-07-12T10:23:55.204Z,33.79
2023-07-12T10:24:58.013Z,34.37
2023-07-12T10:26:03.427Z,33.65
2023-07-12T10:27:15.697Z,32.85
2023-07-12T10:28:40.750Z,32.49
2023-07-12T10:29:55.717Z,31.97
2023-07-12T10:30:58.550Z,30.96
2023-07-12T10:32:02.126Z,30.32
2023-07-12T10:33:33.105Z,29.88
2023-07-12T10:34:45.646Z,29.52
2023-07-12T10:35:54.426Z,29.99
2023-07-12T10:36:58.256Z,31.31
2023-07-12T10:38:05.379Z,30.58
2023-07-12T10:39:07.545Z,30.28
2023-07-12T10:40:17.214Z,29.61
2023-07-12T10:41:35.744Z,28.41
2023-07-12T10:42:47.322Z,28.99
2023-07-12T10:43:57.387Z,29.51
2023-07-12T10:45:00.543Z,28.96
2023-07-12T10:46:11.794Z,28.82
2023-07-12T10:47:16.877Z,28.98
2023-07-12T10:48:27.985Z,28.83
2023-07-12T10:49:53.748Z,29.07
2023-07-12T10:51:16.643Z,27.83
2023-07-12T10:52:30.144Z,27.62
2023-07-12T10:53:36.515Z,27.49
2023-07-12T10:54:48.658Z,27.03
2023-07-12T10:56:16.789Z,27.97
2023-07-12T10:57:21.692Z,28.12
2023-07-12T10:58:28.012Z,27.51
2023-07-12T10:59:32.018Z,26.76
2023-07-12T11:00:49.822Z,26.27
2023-07-12T11:01:54.498Z,26.08
2023-07-12T11:03:24.818Z,26.62
2023-07-12T11:04:39.282Z,28.13
2023-07-12T11:05:47.837Z,28.20
2023-07-12T11:07:01.590Z,28.64
2023-07-12T11:08:04.436Z,29.31
2023-07-12T11:09:10.416Z,30.59
2023-07-12T11:10:18.457Z,29.18
2023-07-12T11:11:20.675Z,29.14
2023-07-12T11:12:31.809Z,29.05
2023-07-12T11:13:35.707Z,28.47
2023-07-12T11:14:40.397Z,29.00
2023-07-12T11:15:58.758Z,27.42
2023-07-12T11:17:12.851Z,26.99
2023-07-12T11:18:34.820Z,28.08
2023-07-12T11:19:43.515Z,28.29
2023-07-12T11:21:06.909Z,29.62
2023-07-12T11:22:20.136Z,28.94
2023-07-12T11:23:33.485Z,28.30
2023-07-12T11:24:42.712Z,27.68
2023-07-12T11:25:45.614Z,27.81
2023-07-12T11:26:56.307Z,26.79
2023-07-12T11:27:58.350Z,27.21
2023-07-12T11:29:31.181Z,27.26
2023-07-12T11:30:36.047Z,26.38
2023-07-12T11:31:42.254Z,26.63
2023-07-12T11:32:47.151Z,26.39
2023-07-12T11:34:19.805Z,26.41
2023-07-12T11:35:48.257Z,26.41
2023-07-12T11:36:53.867Z,26.47
2023-07-12T11:38:00.053Z,26.89
2023-07-12T11:39:03.402Z,26.50
2023-07-12T11:40:20.448Z,26.52
2023-07-12T11:41:24.954Z,26.34
2023-07-12T11:42:29.122Z,25.96
2023-07-12T11:43:35.251Z,26.31
2023-07-12T11:44:37.328Z,26.33
2023-07-12T11:45:39.508Z,27.11
2023-07-12T11:46:43.897Z,27.06
2023-07-12T11:47:50.018Z,26.99
2023-07-12T11:48:56.377Z,27.27
2023-07-12T11:50:00.814Z,29.07
2023-07-12T11:51:06.370Z,28.41
2023-07-12T11:52:13.750Z,29.23
2023-07-12T11:53:16.256Z,28.88
2023-07-12T11:54:23.148Z,29.07
2023-07-12T11:55:29.763Z,29.11
2023-07-12T11:56:31.906Z,28.46
2023-07-12T11:57:40.727Z,30.38
2023-07-12T11:58:43.931Z,30.33
2023-07-12T11:59:49.206Z,29.57
2023-07-12T12:00:52.918Z,30.52
2023-07-12T12:01:55.060Z,30.18
2023-07-12T12:02:59.628Z,29.29
2023-07-12T12:04:06.648Z,29.07
2023-07-12T12:05:17.654Z,28.83
2023-07-12T12:06:20.514Z,28.25
2023-07-12T12:07:28.307Z,28.22
2023-07-12T12:08:31.855Z,27.84
2023-07-12T12:09:36.830Z,27.44
2023-07-12T12:10:40.136Z,27.18
2023-07-12T12:11:42.358Z,28.11
2023-07-12T12:12:47.894Z,28.18
2023-07-12T12:13:52.968Z,27.46
2023-07-12T12:14:56.124Z,27.34
2023-07-12T12:16:18.474Z,26.38
2023-07-12T12:17:26.847Z,26.81
2023-07-12T12:18:29.886Z,26.25
2023-07-12T12:19:33.364Z,26.35
2023-07-12T12:20:38.141Z,27.10
2023-07-12T12:21:51.689Z,27.59
2023-07-12T12:22:58.316Z,27.66
2023-07-12T12:24:07.540Z,27.48
2023-07-12T12:25:20.089Z,26.90
2023-07-12T12:26:34.291Z,27.04
2023-07-12T12:27:38.850Z,27.66
2023-07-12T12:28:41.931Z,28.23
2023-07-12T12:29:44.067Z,28.59
2023-07-12T12:30:57.640Z,27.36
2023-07-12T12:32:06.810Z,27.30
2023-07-12T12:33:26.679Z,26.94
2023-07-12T12:34:36.394Z,26.78
2023-07-12T12:35:48.782Z,27.21
2023-07-12T12:37:17.303Z,27.53
2023-07-12T12:38:21.987Z,27.69
2023-07-12T12:39:24.234Z,28.18
2023-07-12T12:40:27.019Z,28.92
2023-07-12T12:41:39.610Z,28.62
2023-07-12T12:43:02.169Z,28.56
2023-07-12T12:44:08.650Z,28.35
2023-07-12T12:45:10.772Z,28.67
2023-07-12T12:46:21.114Z,28.70
2023-07-12T12:47:30.585Z,29.12
2023-07-12T12:54:10.848Z,28.68
2023-07-12T12:55:29.905Z,28.56
2023-07-12T13:01:59.615Z,28.47
2023-07-12T13:03:25.368Z,28.36
2023-07-12T13:04:59.968Z,27.41
2023-07-12T13:06:04.806Z,27.74
2023-07-12T13:07:35.523Z,27.27
2023-07-12T13:19:41.275Z,30.20
2023-07-12T13:20:44.944Z,30.20
2023-07-12T13:21:47.253Z,29.91
2023-07-12T13:22:49.650Z,29.58
2023-07-12T13:23:51.995Z,29.58
2023-07-12T13:24:55.988Z,29.59
2023-07-12T13:25:58.376Z,29.15
2023-07-12T13:27:00.388Z,28.49
2023-07-12T13:28:02.501Z,28.12
2023-07-12T13:29:16.391Z,27.92
2023-07-12T13:30:20.053Z,28.30
2023-07-12T13:31:23.440Z,29.45
2023-07-12T13:32:25.631Z,30.28
2023-07-12T13:33:29.284Z,29.83
2023-07-12T13:36:46.430Z,29.92
2023-07-12T13:37:51.425Z,29.15
2023-07-12T13:40:20.321Z,29.59
2023-07-12T13:42:44.150Z,28.35
2023-07-12T13:45:14.231Z,29.09
2023-07-12T13:46:16.496Z,28.80
2023-07-12T13:47:26.909Z,29.87
2023-07-12T13:48:29.695Z,29.88
2023-07-12T13:49:31.901Z,29.67
2023-07-12T13:50:34.093Z,28.73
2023-07-12T13:51:36.476Z,28.24
2023-07-12T13:52:38.611Z,27.92
2023-07-12T13:53:40.728Z,26.80
2023-07-12T13:54:43.815Z,26.48
2023-07-12T13:55:47.307Z,25.60
2023-07-12T13:56:49.877Z,26.08
2023-07-12T13:57:52.466Z,25.72
2023-07-12T14:00:09.148Z,25.61
2023-07-12T14:01:24.741Z,24.64
2023-07-12T14:03:39.542Z,24.75
2023-07-12T14:04:52.378Z,25.34
2023-07-12T14:05:58.355Z,25.19
2023-07-12T14:07:14.780Z,24.64
2023-07-12T14:09:24.057Z,26.59
2023-07-12T14:10:27.008Z,25.71
2023-07-12T14:11:32.084Z,24.92
2023-07-12T14:12:34.367Z,24.98
2023-07-12T14:13:36.508Z,24.80
2023-07-12T14:14:38.681Z,24.14
2023-07-12T14:15:40.796Z,24.83
2023-07-12T14:16:43.316Z,25.85
2023-07-12T14:17:45.684Z,25.63
2023-07-12T14:18:48.040Z,26.25
2023-07-12T14:19:54.669Z,27.50
2023-07-12T14:20:58.204Z,27.84
2023-07-12T14:22:00.305Z,28.25
2023-07-12T14:23:02.430Z,27.13
2023-07-12T14:24:04.933Z,27.02
2023-07-12T14:25:07.619Z,26.46
2023-07-12T14:26:29.966Z,26.05
2023-07-12T14:27:34.203Z,26.06
2023-07-12T14:31:02.359Z,24.44
2023-07-12T14:32:17.450Z,23.12
2023-07-12T14:33:32.159Z,21.97
2023-07-12T14:34:34.574Z,22.03
2023-07-12T14:35:36.694Z,22.52
2023-07-12T14:36:39.623Z,21.75
2023-07-12T14:37:41.786Z,22.74
2023-07-12T14:38:44.437Z,22.24
2023-07-12T14:39:46.935Z,21.84
2023-07-12T14:40:49.168Z,21.97
2023-07-12T14:41:51.546Z,21.70
2023-07-12T14:42:53.991Z,21.64